Time;durP1;ratioP1;P1;durP2;ratioP2;P2;SDS_P1;SDS_P2;PMS_P1;PMS_P2;Temp;Humidity;BMP_temperature;BMP_pressure;BME280_temperature;BME280_humidity;BME280_pressure;Samples;Min_cycle;Max_cycle;Signal;HPM_P1;HPM_P2
2023/01/02 00:00:33;;;;;;;0.10;0.10;;;;;;;;;;6171702;23;20531;-81
2023/01/02 00:02:59;;;;;;;0.10;0.10;;;;;;;;;;6177182;23;20029;-79
2023/01/02 00:05:25;;;;;;;0.08;0.08;;;;;;;;;;6157065;23;20349;-80
2023/01/02 00:07:51;;;;;;;0.10;0.10;;;;;;;;;;6182032;23;20028;-80
2023/01/02 00:10:17;;;;;;;0.10;0.10;;;;;;;;;;6172299;23;20092;-80
2023/01/02 00:12:43;;;;;;;0.10;0.10;;;;;;;;;;6170047;23;20088;-82
2023/01/02 00:15:09;;;;;;;0.10;0.10;;;;;;;;;;6169967;23;20017;-80
2023/01/02 00:17:35;;;;;;;0.10;0.10;;;;;;;;;;6170658;23;20013;-81
2023/01/02 00:20:01;;;;;;;0.10;0.10;;;;;;;;;;6170954;23;20013;-80
2023/01/02 00:22:27;;;;;;;0.10;0.10;;;;;;;;;;6171033;23;20020;-82
2023/01/02 00:24:53;;;;;;;0.10;0.10;;;;;;;;;;6170773;23;20139;-82
2023/01/02 00:27:19;;;;;;;0.10;0.10;;;;;;;;;;6145187;23;20362;-81
2023/01/02 00:29:45;;;;;;;0.10;0.10;;;;;;;;;;6169495;23;20021;-81
2023/01/02 00:32:11;;;;;;;0.10;0.10;;;;;;;;;;6170097;23;20017;-81
2023/01/02 00:34:37;;;;;;;0.10;0.10;;;;;;;;;;6170616;23;20355;-81
2023/01/02 00:37:04;;;;;;;0.63;0.63;;;;;;;;;;6169178;23;20591;-81
2023/01/02 00:39:30;;;;;;;0.10;0.10;;;;;;;;;;6169283;23;20020;-81
2023/01/02 00:41:56;;;;;;;0.10;0.10;;;;;;;;;;6170257;23;20032;-81
2023/01/02 00:44:22;;;;;;;0.50;0.50;;;;;;;;;;6167987;23;20025;-81
2023/01/02 00:46:49;;;;;;;0.10;0.10;;;;;;;;;;6170511;23;20021;-80
2023/01/02 00:49:15;;;;;;;0.10;0.10;;;;;;;;;;6166788;23;20021;-83
2023/01/02 00:51:41;;;;;;;0.10;0.10;;;;;;;;;;6178438;23;20091;-86
2023/01/02 00:54:07;;;;;;;0.20;0.20;;;;;;;;;;6175775;23;20029;-83
2023/01/02 00:56:33;;;;;;;0.10;0.10;;;;;;;;;;6176189;23;20021;-85
2023/01/02 00:58:59;;;;;;;0.10;0.10;;;;;;;;;;6174079;23;20019;-83
2023/01/02 01:01:25;;;;;;;0.10;0.10;;;;;;;;;;6175201;23;20092;-84
2023/01/02 01:03:52;;;;;;;0.10;0.10;;;;;;;;;;6175093;23;20060;-83
2023/01/02 01:06:18;;;;;;;0.10;0.10;;;;;;;;;;6151210;23;20317;-85
2023/01/02 01:08:44;;;;;;;0.10;0.10;;;;;;;;;;6175783;23;20017;-84
2023/01/02 01:11:14;;;;;;;0.10;0.10;;;;;;;;;;6170661;23;20094;-83
2023/01/02 01:13:40;;;;;;;0.10;0.10;;;;;;;;;;6171441;23;20027;-84
2023/01/02 01:16:10;;;;;;;0.10;0.10;;;;;;;;;;6147972;23;20356;-84
2023/01/02 01:18:37;;;;;;;0.20;0.20;;;;;;;;;;6147878;23;20457;-85
2023/01/02 01:21:10;;;;;;;0.10;0.10;;;;;;;;;;6147245;23;20013;-84
2023/01/02 01:23:36;;;;;;;0.10;0.10;;;;;;;;;;6143966;23;20020;-83
2023/01/02 01:26:03;;;;;;;0.10;0.10;;;;;;;;;;6168236;23;20138;-84
2023/01/02 01:28:29;;;;;;;0.10;0.10;;;;;;;;;;6169239;23;20017;-85
2023/01/02 01:30:55;;;;;;;0.10;0.10;;;;;;;;;;6144037;23;20013;-84
2023/01/02 01:33:21;;;;;;;0.10;0.10;;;;;;;;;;6143860;23;20021;-84
2023/01/02 01:35:47;;;;;;;0.10;0.10;;;;;;;;;;6169312;23;20025;-84
2023/01/02 01:38:13;;;;;;;0.10;0.10;;;;;;;;;;6144850;23;20288;-84
2023/01/02 01:40:39;;;;;;;0.10;0.10;;;;;;;;;;6143974;23;20067;-84
2023/01/02 01:43:12;;;;;;;0.10;0.10;;;;;;;;;;6145231;23;20145;-84
2023/01/02 01:45:40;;;;;;;0.10;0.10;;;;;;;;;;6169341;23;20021;-85
2023/01/02 01:48:11;;;;;;;0.10;0.10;;;;;;;;;;6145710;23;20021;-84
2023/01/02 01:50:37;;;;;;;0.10;0.10;;;;;;;;;;6167418;23;20024;-84
2023/01/02 01:53:07;;;;;;;0.10;0.10;;;;;;;;;;6144013;23;20500;-85
2023/01/02 01:55:34;;;;;;;0.10;0.10;;;;;;;;;;6143792;23;20017;-84
2023/01/02 01:58:03;;;;;;;0.10;0.10;;;;;;;;;;6140133;23;20017;-84
2023/01/02 02:00:29;;;;;;;0.10;0.10;;;;;;;;;;6143052;23;20309;-84
2023/01/02 02:03:16;;;;;;;0.10;0.10;;;;;;;;;;6167599;23;20016;-84
2023/01/02 02:05:43;;;;;;;0.10;0.10;;;;;;;;;;6167867;23;20017;-84
2023/01/02 02:08:15;;;;;;;0.10;0.10;;;;;;;;;;6168234;23;20079;-83
2023/01/02 02:10:42;;;;;;;0.10;0.10;;;;;;;;;;6168966;23;20013;-84
2023/01/02 02:13:08;;;;;;;0.10;0.10;;;;;;;;;;6143956;23;20017;-84
2023/01/02 02:15:42;;;;;;;0.10;0.10;;;;;;;;;;6144450;23;20025;-84
2023/01/02 02:18:18;;;;;;;0.10;0.10;;;;;;;;;;6142302;23;20021;-83
2023/01/02 02:20:50;;;;;;;0.10;0.10;;;;;;;;;;6143783;23;20064;-85
2023/01/02 02:23:49;;;;;;;0.10;0.10;;;;;;;;;;6166730;23;20110;-84
2023/01/02 02:26:27;;;;;;;1.20;0.95;;;;;;;;;;6169336;23;20060;-85
2023/01/02 02:29:12;;;;;;;0.10;0.10;;;;;;;;;;6142838;23;20021;-84
2023/01/02 02:31:47;;;;;;;0.10;0.10;;;;;;;;;;6169363;23;20028;-85
2023/01/02 02:34:22;;;;;;;0.10;0.10;;;;;;;;;;6167164;23;20017;-84
2023/01/02 02:36:51;;;;;;;0.10;0.10;;;;;;;;;;6167990;23;20470;-84
2023/01/02 02:39:23;;;;;;;0.10;0.10;;;;;;;;;;6168365;23;20210;-84
2023/01/02 02:41:49;;;;;;;0.10;0.10;;;;;;;;;;6168645;23;20096;-85
2023/01/02 02:44:39;;;;;;;0.10;0.10;;;;;;;;;;6143251;23;20309;-84
2023/01/02 02:47:07;;;;;;;0.10;0.10;;;;;;;;;;6126523;23;20021;-84
2023/01/02 02:49:33;;;;;;;0.10;0.10;;;;;;;;;;6167156;23;20013;-84
2023/01/02 02:52:02;;;;;;;0.10;0.10;;;;;;;;;;6167468;23;20016;-84
2023/01/02 02:54:45;;;;;;;0.20;0.20;;;;;;;;;;6142790;23;20475;-84
2023/01/02 02:57:11;;;;;;;1.55;1.45;;;;;;;;;;6142560;23;20093;-84
2023/01/02 02:59:38;;;;;;;0.10;0.10;;;;;;;;;;6167376;23;20024;-85
2023/01/02 03:02:04;;;;;;;0.10;0.10;;;;;;;;;;6143735;23;20449;-84
2023/01/02 03:04:30;;;;;;;0.40;0.40;;;;;;;;;;6143023;23;20348;-84
2023/01/02 03:07:05;;;;;;;0.10;0.10;;;;;;;;;;6166714;23;20139;-85
2023/01/02 03:09:34;;;;;;;0.10;0.10;;;;;;;;;;6167530;23;20035;-84
2023/01/02 03:12:07;;;;;;;0.10;0.10;;;;;;;;;;6167778;23;20020;-85
2023/01/02 03:14:42;;;;;;;0.50;0.50;;;;;;;;;;6167826;23;20021;-85
2023/01/02 03:17:16;;;;;;;0.10;0.10;;;;;;;;;;6167612;23;20036;-84
2023/01/02 03:19:45;;;;;;;0.10;0.10;;;;;;;;;;6142591;23;20449;-85
2023/01/02 03:22:23;;;;;;;0.10;0.10;;;;;;;;;;6167930;23;20013;-84
2023/01/02 03:24:51;;;;;;;0.10;0.10;;;;;;;;;;6167725;23;20017;-85
2023/01/02 03:27:21;;;;;;;5.38;2.72;;;;;;;;;;6167719;23;20318;-84
2023/01/02 03:30:08;;;;;;;0.30;0.30;;;;;;;;;;6168759;23;20351;-85
2023/01/02 03:32:39;;;;;;;0.20;0.20;;;;;;;;;;6166532;23;20086;-84
2023/01/02 03:35:10;;;;;;;0.10;0.10;;;;;;;;;;6167084;23;20028;-84
2023/01/02 03:37:39;;;;;;;0.10;0.10;;;;;;;;;;6143230;23;20016;-85
2023/01/02 03:40:11;;;;;;;0.10;0.10;;;;;;;;;;6168193;23;20013;-85
2023/01/02 03:42:40;;;;;;;0.10;0.10;;;;;;;;;;6142968;23;20032;-84
2023/01/02 03:45:17;;;;;;;0.08;0.08;;;;;;;;;;6168668;23;20342;-84
2023/01/02 03:47:48;;;;;;;0.10;0.10;;;;;;;;;;6171442;23;20029;-85
2023/01/02 03:50:37;;;;;;;0.10;0.10;;;;;;;;;;6170248;23;20027;-84
2023/01/02 03:53:03;;;;;;;0.10;0.10;;;;;;;;;;6165798;23;20032;-84
2023/01/02 03:55:31;;;;;;;0.17;0.17;;;;;;;;;;6145295;23;20024;-84
2023/01/02 03:58:00;;;;;;;0.10;0.10;;;;;;;;;;6168582;23;20110;-85
2023/01/02 04:00:30;;;;;;;1.20;1.20;;;;;;;;;;6167855;23;20352;-84
2023/01/02 04:03:02;;;;;;;0.10;0.10;;;;;;;;;;6145069;23;20420;-84
2023/01/02 04:05:39;;;;;;;0.10;0.10;;;;;;;;;;6143919;23;20096;-85
2023/01/02 04:08:09;;;;;;;0.38;0.38;;;;;;;;;;6143968;23;20094;-84
2023/01/02 04:10:38;;;;;;;0.20;0.20;;;;;;;;;;6169248;23;20349;-84
2023/01/02 04:13:08;;;;;;;0.10;0.10;;;;;;;;;;6143186;23;20021;-85
2023/01/02 04:15:36;;;;;;;0.10;0.10;;;;;;;;;;6168540;23;20112;-85
2023/01/02 04:18:06;;;;;;;0.52;0.52;;;;;;;;;;6168682;23;20326;-84
2023/01/02 04:20:38;;;;;;;0.13;0.13;;;;;;;;;;6144867;23;20019;-84
2023/01/02 04:23:08;;;;;;;0.20;0.20;;;;;;;;;;6145069;23;20024;-84
2023/01/02 04:25:37;;;;;;;0.20;0.20;;;;;;;;;;6144127;23;20451;-85
2023/01/02 04:28:10;;;;;;;0.60;0.55;;;;;;;;;;6169753;23;20132;-85
2023/01/02 04:30:39;;;;;;;0.10;0.10;;;;;;;;;;6143259;23;20020;-85
2023/01/02 04:33:06;;;;;;;0.55;0.55;;;;;;;;;;6168345;23;20111;-84
2023/01/02 04:35:34;;;;;;;0.00;0.00;;;;;;;;;;6144492;23;20559;-85
2023/01/02 04:38:10;;;;;;;0.10;0.10;;;;;;;;;;6121303;23;20376;-85
2023/01/02 04:40:36;;;;;;;0.15;0.15;;;;;;;;;;6169371;23;20021;-85
2023/01/02 04:43:18;;;;;;;0.10;0.10;;;;;;;;;;6143817;23;20024;-84
2023/01/02 04:45:44;;;;;;;0.20;0.20;;;;;;;;;;6144294;23;20460;-84
2023/01/02 04:48:10;;;;;;;0.10;0.10;;;;;;;;;;6169019;23;20013;-84
2023/01/02 04:50:36;;;;;;;0.10;0.10;;;;;;;;;;6144252;23;20049;-85
2023/01/02 04:53:02;;;;;;;1.17;1.02;;;;;;;;;;6169455;23;20295;-84
2023/01/02 04:55:28;;;;;;;0.00;0.00;;;;;;;;;;6168935;23;20103;-84
2023/01/02 04:57:56;;;;;;;0.20;0.20;;;;;;;;;;6144042;23;20021;-84
2023/01/02 05:00:22;;;;;;;0.10;0.10;;;;;;;;;;6168046;23;20017;-84
2023/01/02 05:02:48;;;;;;;0.10;0.10;;;;;;;;;;6143823;23;20024;-84
2023/01/02 05:05:14;;;;;;;1.27;0.68;;;;;;;;;;6168346;23;20021;-84
2023/01/02 05:07:40;;;;;;;0.00;0.00;;;;;;;;;;6144392;23;20064;-85
2023/01/02 05:10:07;;;;;;;0.10;0.10;;;;;;;;;;6143973;23;20452;-84
2023/01/02 05:12:34;;;;;;;0.47;0.43;;;;;;;;;;6168991;23;20063;-85
2023/01/02 05:15:00;;;;;;;0.10;0.10;;;;;;;;;;6168704;23;20115;-85
2023/01/02 05:17:26;;;;;;;0.10;0.10;;;;;;;;;;6168446;23;20016;-85
2023/01/02 05:19:52;;;;;;;0.10;0.10;;;;;;;;;;6143849;23;20017;-85
2023/01/02 05:25:03;;;;;;;0.10;0.10;;;;;;;;;;6167815;23;20101;-84
2023/01/02 05:27:29;;;;;;;0.10;0.10;;;;;;;;;;6168394;23;20017;-85
2023/01/02 05:29:55;;;;;;;0.10;0.10;;;;;;;;;;6168223;23;20064;-85
2023/01/02 05:32:21;;;;;;;0.10;0.10;;;;;;;;;;6168491;23;20049;-85
2023/01/02 05:34:47;;;;;;;0.10;0.10;;;;;;;;;;6143993;23;20445;-85
2023/01/02 05:37:13;;;;;;;0.10;0.10;;;;;;;;;;6144103;23;20096;-85
2023/01/02 05:39:39;;;;;;;0.10;0.10;;;;;;;;;;6143303;23;20013;-85
2023/01/02 05:42:05;;;;;;;0.10;0.10;;;;;;;;;;6169079;23;20017;-85
2023/01/02 05:44:31;;;;;;;0.10;0.10;;;;;;;;;;6160506;23;20021;-84
2023/01/02 05:46:57;;;;;;;0.10;0.10;;;;;;;;;;6143094;23;20532;-85
2023/01/02 05:49:23;;;;;;;0.10;0.10;;;;;;;;;;6119712;23;20424;-85
2023/01/02 05:51:49;;;;;;;0.10;0.10;;;;;;;;;;6144025;23;20181;-85
2023/01/02 05:54:15;;;;;;;0.10;0.10;;;;;;;;;;6143630;23;20080;-85
2023/01/02 05:56:41;;;;;;;0.10;0.10;;;;;;;;;;6118424;23;20020;-85
2023/01/02 05:59:08;;;;;;;0.10;0.10;;;;;;;;;;6142582;23;20023;-85
2023/01/02 06:01:34;;;;;;;0.10;0.10;;;;;;;;;;6117781;23;20028;-85
2023/01/02 06:04:00;;;;;;;0.10;0.10;;;;;;;;;;6118827;23;20399;-85
2023/01/02 06:06:29;;;;;;;0.10;0.10;;;;;;;;;;6141212;23;20086;-81
2023/01/02 06:08:55;;;;;;;0.10;0.10;;;;;;;;;;6141837;23;20023;-87
2023/01/02 06:11:21;;;;;;;0.10;0.10;;;;;;;;;;6142723;23;20299;-84
2023/01/02 06:13:47;;;;;;;0.10;0.10;;;;;;;;;;6118905;23;20539;-91
2023/01/02 06:16:13;;;;;;;0.00;0.00;;;;;;;;;;6140478;23;20052;-80
2023/01/02 06:18:40;;;;;;;0.10;0.10;;;;;;;;;;6143902;23;20884;-81
2023/01/02 06:21:08;;;;;;;0.10;0.10;;;;;;;;;;6143576;23;20021;-80
2023/01/02 06:23:34;;;;;;;0.10;0.10;;;;;;;;;;6118758;23;20017;-80
2023/01/02 06:26:03;;;;;;;0.50;0.50;;;;;;;;;;6118637;23;20111;-81
2023/01/02 06:28:30;;;;;;;0.10;0.10;;;;;;;;;;6142328;23;20052;-81
2023/01/02 06:31:00;;;;;;;0.10;0.10;;;;;;;;;;6118011;23;20095;-83
2023/01/02 06:33:26;;;;;;;0.10;0.10;;;;;;;;;;6143863;23;20048;-83
2023/01/02 06:35:59;;;;;;;1.27;1.23;;;;;;;;;;6118054;23;20017;-81
2023/01/02 06:38:25;;;;;;;0.10;0.10;;;;;;;;;;6143054;23;20071;-86
2023/01/02 06:40:52;;;;;;;0.10;0.10;;;;;;;;;;6142223;23;20064;-86
2023/01/02 06:43:18;;;;;;;0.20;0.20;;;;;;;;;;6117255;23;20056;-87
2023/01/02 06:45:44;;;;;;;0.10;0.10;;;;;;;;;;6141687;23;20032;-87
2023/01/02 06:48:10;;;;;;;0.10;0.10;;;;;;;;;;6168639;23;20059;-86
2023/01/02 06:50:36;;;;;;;0.10;0.10;;;;;;;;;;6145707;23;20017;-89
2023/01/02 06:53:02;;;;;;;0.10;0.10;;;;;;;;;;6142028;23;20028;-81
2023/01/02 06:55:28;;;;;;;0.10;0.10;;;;;;;;;;6141596;23;20023;-84
2023/01/02 06:57:54;;;;;;;0.10;0.10;;;;;;;;;;6166791;23;20013;-84
2023/01/02 07:00:20;;;;;;;0.13;0.13;;;;;;;;;;6139957;23;20133;-84
2023/01/02 07:02:46;;;;;;;0.10;0.10;;;;;;;;;;6167717;23;20497;-83
2023/01/02 07:05:12;;;;;;;0.40;0.40;;;;;;;;;;6165752;23;20021;-82
2023/01/02 07:07:38;;;;;;;0.10;0.10;;;;;;;;;;6167535;23;20013;-83
2023/01/02 07:10:05;;;;;;;0.10;0.10;;;;;;;;;;6166538;23;20074;-83
2023/01/02 07:12:31;;;;;;;0.10;0.10;;;;;;;;;;6167642;23;20396;-85
2023/01/02 07:14:57;;;;;;;0.10;0.10;;;;;;;;;;6167084;23;20040;-84
2023/01/02 07:17:23;;;;;;;0.00;0.00;;;;;;;;;;6167771;23;20766;-83
2023/01/02 07:19:49;;;;;;;0.10;0.10;;;;;;;;;;6143230;23;20021;-85
2023/01/02 07:22:15;;;;;;;0.10;0.10;;;;;;;;;;6141364;23;20418;-84
2023/01/02 07:24:41;;;;;;;0.10;0.10;;;;;;;;;;6166759;23;20096;-84
2023/01/02 07:27:07;;;;;;;0.10;0.10;;;;;;;;;;6165149;23;20490;-84
2023/01/02 07:29:33;;;;;;;0.10;0.10;;;;;;;;;;6167949;23;20020;-85
2023/01/02 07:31:59;;;;;;;0.10;0.10;;;;;;;;;;6169032;23;20017;-85
2023/01/02 07:34:26;;;;;;;0.10;0.10;;;;;;;;;;6144126;23;20070;-85
2023/01/02 07:36:52;;;;;;;0.10;0.10;;;;;;;;;;6166720;23;20252;-85
2023/01/02 07:39:18;;;;;;;0.10;0.10;;;;;;;;;;6143047;23;20024;-85
2023/01/02 07:41:44;;;;;;;0.00;0.00;;;;;;;;;;6142521;23;20075;-85
2023/01/02 07:44:10;;;;;;;0.10;0.10;;;;;;;;;;6167936;23;20087;-85
2023/01/02 07:46:36;;;;;;;0.10;0.10;;;;;;;;;;6166614;23;20352;-85
2023/01/02 07:49:02;;;;;;;0.10;0.10;;;;;;;;;;6141592;23;20017;-85
2023/01/02 07:51:28;;;;;;;0.10;0.10;;;;;;;;;;6166872;23;20021;-84
2023/01/02 07:53:54;;;;;;;0.10;0.10;;;;;;;;;;6141552;23;20404;-85
2023/01/02 07:56:20;;;;;;;0.10;0.10;;;;;;;;;;6141664;23;20055;-84
2023/01/02 07:58:46;;;;;;;0.10;0.10;;;;;;;;;;6144106;23;20024;-85
2023/01/02 08:01:12;;;;;;;0.10;0.10;;;;;;;;;;6169188;23;20522;-84
2023/01/02 08:03:39;;;;;;;0.00;0.00;;;;;;;;;;6168796;23;20465;-84
2023/01/02 08:06:05;;;;;;;0.10;0.10;;;;;;;;;;6167821;23;20267;-84
2023/01/02 08:08:34;;;;;;;0.10;0.10;;;;;;;;;;6146714;23;20413;-85
2023/01/02 08:11:04;;;;;;;0.10;0.10;;;;;;;;;;6169505;23;20809;-84
2023/01/02 08:13:30;;;;;;;0.10;0.10;;;;;;;;;;6143852;23;20282;-84
2023/01/02 08:15:56;;;;;;;0.10;0.10;;;;;;;;;;6166259;23;20016;-84
2023/01/02 08:18:22;;;;;;;0.10;0.10;;;;;;;;;;6167102;23;20479;-84
2023/01/02 08:20:48;;;;;;;0.10;0.10;;;;;;;;;;6138977;23;20437;-84
2023/01/02 08:23:14;;;;;;;0.10;0.10;;;;;;;;;;6140355;23;20440;-84
2023/01/02 08:25:40;;;;;;;0.20;0.20;;;;;;;;;;6166012;23;20053;-85
2023/01/02 08:28:07;;;;;;;0.10;0.10;;;;;;;;;;6167661;23;20021;-82
2023/01/02 08:30:33;;;;;;;0.10;0.10;;;;;;;;;;6167226;23;20013;-82
2023/01/02 08:32:59;;;;;;;0.10;0.10;;;;;;;;;;6168716;23;20340;-82
2023/01/02 08:35:26;;;;;;;0.10;0.10;;;;;;;;;;6169070;23;20349;-82
2023/01/02 08:37:52;;;;;;;0.10;0.10;;;;;;;;;;6169469;23;20020;-82
2023/01/02 08:40:18;;;;;;;0.10;0.10;;;;;;;;;;6167822;23;20013;-82
2023/01/02 08:42:44;;;;;;;0.10;0.10;;;;;;;;;;6167588;23;20138;-82
2023/01/02 08:45:10;;;;;;;0.10;0.10;;;;;;;;;;6168584;23;20021;-81
2023/01/02 08:47:36;;;;;;;0.10;0.10;;;;;;;;;;6168040;23;20057;-83
2023/01/02 08:50:02;;;;;;;0.10;0.10;;;;;;;;;;6166639;23;20021;-79
2023/01/02 08:52:28;;;;;;;0.10;0.10;;;;;;;;;;6166572;23;20021;-84
2023/01/02 08:54:55;;;;;;;0.10;0.10;;;;;;;;;;6166945;23;20049;-82
2023/01/02 08:57:22;;;;;;;0.10;0.10;;;;;;;;;;6166702;23;20025;-82
2023/01/02 08:59:48;;;;;;;0.10;0.10;;;;;;;;;;6142486;23;20404;-82
2023/01/02 09:02:14;;;;;;;0.10;0.10;;;;;;;;;;6143546;23;20326;-82
2023/01/02 09:04:41;;;;;;;0.10;0.10;;;;;;;;;;6143660;23;20360;-82
2023/01/02 09:07:08;;;;;;;0.10;0.10;;;;;;;;;;6142944;23;20083;-87
2023/01/02 09:09:34;;;;;;;0.10;0.10;;;;;;;;;;6143387;23;20023;-79
2023/01/02 09:12:00;;;;;;;0.10;0.10;;;;;;;;;;6142721;23;20013;-80
2023/01/02 09:14:26;;;;;;;0.10;0.10;;;;;;;;;;6168653;23;20132;-80
2023/01/02 09:16:56;;;;;;;0.10;0.10;;;;;;;;;;6168546;23;20366;-82
2023/01/02 09:19:23;;;;;;;0.10;0.10;;;;;;;;;;6145276;23;20588;-79
2023/01/02 09:21:49;;;;;;;0.10;0.10;;;;;;;;;;6169171;23;20773;-81
2023/01/02 09:24:16;;;;;;;0.10;0.10;;;;;;;;;;6168483;23;20021;-81
2023/01/02 09:26:45;;;;;;;0.10;0.10;;;;;;;;;;6168093;23;20336;-81
2023/01/02 09:29:11;;;;;;;0.32;0.32;;;;;;;;;;6168720;23;20082;-81
2023/01/02 09:31:38;;;;;;;0.10;0.10;;;;;;;;;;6143317;23;20025;-80
2023/01/02 09:34:04;;;;;;;0.10;0.10;;;;;;;;;;6169966;23;20400;-80
2023/01/02 09:36:31;;;;;;;0.00;0.00;;;;;;;;;;6170153;23;20021;-80
2023/01/02 09:38:58;;;;;;;0.10;0.10;;;;;;;;;;6141616;23;20017;-80
2023/01/02 09:41:50;;;;;;;0.10;0.10;;;;;;;;;;6143232;23;20138;-80
2023/01/02 09:44:29;;;;;;;0.10;0.10;;;;;;;;;;6162430;23;20040;-79
2023/01/02 09:46:59;;;;;;;0.10;0.10;;;;;;;;;;6142049;23;20464;-81
2023/01/02 09:49:39;;;;;;;0.10;0.10;;;;;;;;;;6141363;23;20049;-86
2023/01/02 09:52:12;;;;;;;0.10;0.10;;;;;;;;;;6165371;23;20016;-80
2023/01/02 09:54:38;;;;;;;0.10;0.10;;;;;;;;;;6166590;23;20064;-81
2023/01/02 09:57:04;;;;;;;0.10;0.10;;;;;;;;;;6165476;23;20493;-80
2023/01/02 09:59:39;;;;;;;0.10;0.10;;;;;;;;;;6167696;23;20053;-87
2023/01/02 10:02:05;;;;;;;0.10;0.10;;;;;;;;;;6166601;23;20017;-85
2023/01/02 10:05:00;;;;;;;0.10;0.10;;;;;;;;;;6166339;23;20056;-85
2023/01/02 10:07:30;;;;;;;0.10;0.10;;;;;;;;;;6116666;23;20298;-82
2023/01/02 10:10:02;;;;;;;0.10;0.10;;;;;;;;;;6140469;23;20017;-83
2023/01/02 10:12:35;;;;;;;0.10;0.10;;;;;;;;;;6144283;23;20055;-85
2023/01/02 10:15:02;;;;;;;0.10;0.10;;;;;;;;;;6169096;23;20027;-80
2023/01/02 10:17:31;;;;;;;0.10;0.10;;;;;;;;;;6165573;23;20021;-79
2023/01/02 10:20:07;;;;;;;0.10;0.10;;;;;;;;;;6164723;23;20029;-78
2023/01/02 10:22:37;;;;;;;0.10;0.10;;;;;;;;;;6167209;23;20025;-84
2023/01/02 10:25:10;;;;;;;0.10;0.10;;;;;;;;;;6165249;23;20055;-83
2023/01/02 10:27:44;;;;;;;0.55;0.55;;;;;;;;;;6166858;23;20020;-84
2023/01/02 10:30:21;;;;;;;0.10;0.10;;;;;;;;;;6165805;23;20025;-81
2023/01/02 10:32:52;;;;;;;0.10;0.10;;;;;;;;;;6168236;23;20028;-83
2023/01/02 10:35:24;;;;;;;0.10;0.10;;;;;;;;;;6167467;23;20021;-84
2023/01/02 10:37:51;;;;;;;0.10;0.10;;;;;;;;;;6168593;23;20013;-86
2023/01/02 10:40:18;;;;;;;0.10;0.10;;;;;;;;;;6140928;23;20508;-86
2023/01/02 10:42:44;;;;;;;0.10;0.10;;;;;;;;;;6166769;23;20025;-86
2023/01/02 10:45:16;;;;;;;0.10;0.10;;;;;;;;;;6165664;23;20071;-79
2023/01/02 10:47:43;;;;;;;0.10;0.10;;;;;;;;;;6162334;23;20025;-81
2023/01/02 10:50:18;;;;;;;0.10;0.10;;;;;;;;;;6166216;23;20017;-83
2023/01/02 10:53:03;;;;;;;0.10;0.10;;;;;;;;;;6166724;23;20124;-85
2023/01/02 10:55:34;;;;;;;0.10;0.10;;;;;;;;;;6167859;23;20471;-85
2023/01/02 10:58:19;;;;;;;0.10;0.10;;;;;;;;;;6144520;23;20016;-82
2023/01/02 11:00:45;;;;;;;0.10;0.10;;;;;;;;;;6146065;23;20416;-91
2023/01/02 11:03:21;;;;;;;0.10;0.10;;;;;;;;;;6173315;23;20020;-93
2023/01/02 11:05:54;;;;;;;0.10;0.10;;;;;;;;;;6175599;23;20029;-94
2023/01/02 11:08:22;;;;;;;0.10;0.10;;;;;;;;;;6182975;23;20024;-93
2023/01/02 11:10:48;;;;;;;0.10;0.10;;;;;;;;;;6146193;23;20070;-94
2023/01/02 11:13:16;;;;;;;0.10;0.10;;;;;;;;;;6142938;23;20319;-85
2023/01/02 11:16:03;;;;;;;0.00;0.00;;;;;;;;;;6167344;23;20459;-82
2023/01/02 11:18:31;;;;;;;0.10;0.10;;;;;;;;;;6169499;23;20102;-87
2023/01/02 11:21:04;;;;;;;0.10;0.10;;;;;;;;;;6168862;23;20131;-86
2023/01/02 11:23:34;;;;;;;0.10;0.10;;;;;;;;;;6143365;23;20449;-90
2023/01/02 11:26:00;;;;;;;0.10;0.10;;;;;;;;;;6170052;23;20020;-87
2023/01/02 11:28:28;;;;;;;0.10;0.10;;;;;;;;;;6166956;23;20467;-88
2023/01/02 11:30:59;;;;;;;0.20;0.20;;;;;;;;;;6146010;23;20724;-88
2023/01/02 11:33:27;;;;;;;0.10;0.10;;;;;;;;;;6169168;23;20025;-93
2023/01/02 11:36:04;;;;;;;0.10;0.10;;;;;;;;;;6141308;23;20026;-83
2023/01/02 11:38:59;;;;;;;0.10;0.10;;;;;;;;;;6142839;23;20344;-81
2023/01/02 11:44:27;;;;;;;0.10;0.10;;;;;;;;;;6166591;23;20379;-87
2023/01/02 11:46:54;;;;;;;0.10;0.10;;;;;;;;;;6166256;23;20017;-78
2023/01/02 11:49:23;;;;;;;0.10;0.10;;;;;;;;;;6165621;23;20123;-77
2023/01/02 11:51:54;;;;;;;0.10;0.10;;;;;;;;;;6168139;23;20034;-77
2023/01/02 11:54:22;;;;;;;0.35;0.35;;;;;;;;;;6137569;23;20043;-76
2023/01/02 11:56:49;;;;;;;0.10;0.10;;;;;;;;;;6163815;23;20096;-76
2023/01/02 11:59:24;;;;;;;0.10;0.10;;;;;;;;;;6162876;23;20079;-76
2023/01/02 12:01:56;;;;;;;0.10;0.10;;;;;;;;;;6163521;23;20017;-74
2023/01/02 12:04:23;;;;;;;0.10;0.10;;;;;;;;;;6169276;23;20063;-76
2023/01/02 12:07:01;;;;;;;0.10;0.10;;;;;;;;;;6168584;23;20029;-76
2023/01/02 12:09:35;;;;;;;0.85;0.80;;;;;;;;;;6166217;23;20115;-75
2023/01/02 12:12:13;;;;;;;0.13;0.13;;;;;;;;;;6170213;23;20028;-76
2023/01/02 12:14:39;;;;;;;0.10;0.10;;;;;;;;;;6172285;23;20484;-76
2023/01/02 12:17:24;;;;;;;0.10;0.10;;;;;;;;;;6169782;23;20021;-76
2023/01/02 12:19:56;;;;;;;0.10;0.10;;;;;;;;;;6170173;23;20012;-74
2023/01/02 12:22:25;;;;;;;0.10;0.10;;;;;;;;;;6167770;23;20013;-75
2023/01/02 12:25:10;;;;;;;0.10;0.10;;;;;;;;;;6166746;23;20496;-75
2023/01/02 12:27:43;;;;;;;0.10;0.10;;;;;;;;;;6169355;23;20056;-75
2023/01/02 12:30:12;;;;;;;0.10;0.10;;;;;;;;;;6167079;23;20408;-75
2023/01/02 12:32:50;;;;;;;0.10;0.10;;;;;;;;;;6167344;23;20264;-75
2023/01/02 12:35:36;;;;;;;0.10;0.10;;;;;;;;;;6167597;23;20071;-76
2023/01/02 12:38:07;;;;;;;0.10;0.10;;;;;;;;;;6167713;23;20064;-76
2023/01/02 12:40:33;;;;;;;0.10;0.10;;;;;;;;;;6142786;23;20507;-76
2023/01/02 12:42:59;;;;;;;0.10;0.10;;;;;;;;;;6166029;23;20507;-77
2023/01/02 12:45:31;;;;;;;0.10;0.10;;;;;;;;;;6167317;23;20103;-76
2023/01/02 12:48:08;;;;;;;0.10;0.10;;;;;;;;;;6167908;23;20029;-77
2023/01/02 12:50:49;;;;;;;0.10;0.10;;;;;;;;;;6167889;23;20017;-80
2023/01/02 12:53:34;;;;;;;0.10;0.10;;;;;;;;;;6170804;23;20032;-79
2023/01/02 12:56:13;;;;;;;0.10;0.10;;;;;;;;;;6170080;23;20550;-82
2023/01/02 12:58:39;;;;;;;0.10;0.10;;;;;;;;;;6169891;23;20020;-79
2023/01/02 13:01:11;;;;;;;0.10;0.10;;;;;;;;;;6169344;23;20083;-80
2023/01/02 13:03:37;;;;;;;0.20;0.20;;;;;;;;;;6169861;23;20533;-80
2023/01/02 13:06:14;;;;;;;0.10;0.10;;;;;;;;;;6170900;23;20118;-80
2023/01/02 13:08:45;;;;;;;0.95;0.95;;;;;;;;;;6169564;23;20037;-80
2023/01/02 13:11:14;;;;;;;0.10;0.10;;;;;;;;;;6170881;23;20024;-80
2023/01/02 13:13:40;;;;;;;0.10;0.10;;;;;;;;;;6169546;23;20087;-80
2023/01/02 13:16:10;;;;;;;0.00;0.00;;;;;;;;;;6171260;23;20027;-78
2023/01/02 13:18:36;;;;;;;0.10;0.10;;;;;;;;;;6170398;23;20527;-80
2023/01/02 13:21:05;;;;;;;0.30;0.30;;;;;;;;;;6170410;23;20025;-80
2023/01/02 13:23:34;;;;;;;0.10;0.10;;;;;;;;;;6170556;23;20555;-80
2023/01/02 13:26:08;;;;;;;0.10;0.10;;;;;;;;;;6171232;23;20080;-79
2023/01/02 13:28:41;;;;;;;0.10;0.10;;;;;;;;;;6170867;23;20017;-80
2023/01/02 13:31:09;;;;;;;0.10;0.10;;;;;;;;;;6171985;23;20028;-80
2023/01/02 13:33:37;;;;;;;0.10;0.10;;;;;;;;;;6169893;23;20488;-80
2023/01/02 13:36:14;;;;;;;0.10;0.10;;;;;;;;;;6170147;23;20040;-79
2023/01/02 13:38:40;;;;;;;0.10;0.10;;;;;;;;;;6168896;23;20023;-79
2023/01/02 13:41:07;;;;;;;0.10;0.10;;;;;;;;;;6145340;23;20021;-77
2023/01/02 13:43:33;;;;;;;0.10;0.10;;;;;;;;;;6168539;23;20021;-79
2023/01/02 13:46:01;;;;;;;0.10;0.10;;;;;;;;;;6169935;23;20054;-80
2023/01/02 13:48:37;;;;;;;0.10;0.10;;;;;;;;;;6168954;23;20213;-79
2023/01/02 13:51:03;;;;;;;0.10;0.10;;;;;;;;;;6169279;23;20021;-79
2023/01/02 13:53:35;;;;;;;0.10;0.10;;;;;;;;;;6168737;23;20136;-80
2023/01/02 13:56:06;;;;;;;0.10;0.10;;;;;;;;;;6171124;23;20013;-79
2023/01/02 13:58:39;;;;;;;0.65;0.63;;;;;;;;;;6170137;23;20017;-80
2023/01/02 14:01:21;;;;;;;0.10;0.10;;;;;;;;;;6170869;23;20440;-79
2023/01/02 14:04:07;;;;;;;0.10;0.10;;;;;;;;;;6168627;23;20036;-80
2023/01/02 14:06:34;;;;;;;0.10;0.10;;;;;;;;;;6169613;23;20487;-79
2023/01/02 14:09:03;;;;;;;0.00;0.00;;;;;;;;;;6168194;23;20017;-79
2023/01/02 14:11:41;;;;;;;0.08;0.08;;;;;;;;;;6166169;23;20433;-81
2023/01/02 14:14:15;;;;;;;0.10;0.10;;;;;;;;;;6168854;23;20025;-81
2023/01/02 14:16:47;;;;;;;0.10;0.10;;;;;;;;;;6169246;23;20027;-79
2023/01/02 14:19:14;;;;;;;0.10;0.10;;;;;;;;;;6171060;23;20029;-80
2023/01/02 14:21:40;;;;;;;0.10;0.10;;;;;;;;;;6171488;23;20013;-82
2023/01/02 14:24:06;;;;;;;0.82;0.70;;;;;;;;;;6168253;23;20348;-81
2023/01/02 14:26:34;;;;;;;0.10;0.10;;;;;;;;;;6170012;23;20028;-79
2023/01/02 14:29:04;;;;;;;0.10;0.10;;;;;;;;;;6168550;23;20021;-81
2023/01/02 14:31:34;;;;;;;0.10;0.10;;;;;;;;;;6168266;23;20348;-83
2023/01/02 14:34:00;;;;;;;0.10;0.10;;;;;;;;;;6166030;23;20029;-87
2023/01/02 14:36:35;;;;;;;0.10;0.10;;;;;;;;;;6168931;23;20056;-79
2023/01/02 14:39:02;;;;;;;0.10;0.10;;;;;;;;;;6170279;23;20024;-79
2023/01/02 14:44:33;;;;;;;0.10;0.10;;;;;;;;;;6169296;23;20024;-80
2023/01/02 14:47:02;;;;;;;0.10;0.10;;;;;;;;;;6168518;23;20025;-78
2023/01/02 14:49:28;;;;;;;0.10;0.10;;;;;;;;;;6170386;23;20433;-80
2023/01/02 14:51:59;;;;;;;0.10;0.10;;;;;;;;;;6143927;23;20025;-76
2023/01/02 14:54:26;;;;;;;0.10;0.10;;;;;;;;;;6145082;23;20025;-81
2023/01/02 14:56:55;;;;;;;0.10;0.10;;;;;;;;;;6142888;23;20101;-82
2023/01/02 14:59:24;;;;;;;0.10;0.10;;;;;;;;;;6170854;23;20020;-84
2023/01/02 15:01:54;;;;;;;0.10;0.10;;;;;;;;;;6144455;23;20056;-83
2023/01/02 15:04:22;;;;;;;0.00;0.00;;;;;;;;;;6173825;23;20076;-85